Time;durP1;ratioP1;P1;durP2;ratioP2;P2;SDS_P1;SDS_P2;PMS_P1;PMS_P2;Temp;Humidity;BMP_temperature;BMP_pressure;BME280_temperature;BME280_humidity;BME280_pressure;Samples;Min_cycle;Max_cycle;Signal;HPM_P1;HPM_P2
2022/06/26 00:00:07;;;;;;;16.65;11.73;;;18.50;99.90;;;;;;5052470;28;20210;-81
2022/06/26 00:02:33;;;;;;;17.35;10.77;;;18.40;99.90;;;;;;5037597;28;20111;-81
2022/06/26 00:04:59;;;;;;;18.67;11.00;;;18.40;99.90;;;;;;5061994;28;20045;-81
2022/06/26 00:07:24;;;;;;;18.67;10.68;;;18.50;99.90;;;;;;5054113;28;20040;-81
2022/06/26 00:09:50;;;;;;;15.15;10.73;;;18.50;99.90;;;;;;5063832;28;20213;-81
2022/06/26 00:12:16;;;;;;;14.55;10.90;;;18.40;99.90;;;;;;5077862;28;20392;-81
2022/06/26 00:14:45;;;;;;;17.95;11.27;;;18.40;99.90;;;;;;5033987;28;20063;-81
2022/06/26 00:17:11;;;;;;;16.10;11.05;;;18.40;99.90;;;;;;5065617;28;20148;-81
2022/06/26 00:19:36;;;;;;;15.00;10.48;;;18.50;99.90;;;;;;5064892;28;20159;-81
2022/06/26 00:22:06;;;;;;;16.20;11.10;;;18.40;99.90;;;;;;5070396;28;20090;-81
2022/06/26 00:24:35;;;;;;;16.15;11.50;;;18.40;99.90;;;;;;5048399;28;20059;-81
2022/06/26 00:27:06;;;;;;;15.75;11.75;;;18.40;99.90;;;;;;5033515;28;20044;-81
2022/06/26 00:29:33;;;;;;;21.83;12.30;;;18.40;99.90;;;;;;5056280;28;20040;-81
2022/06/26 00:32:00;;;;;;;20.33;12.00;;;18.30;99.90;;;;;;5080141;28;20047;-80
2022/06/26 00:34:25;;;;;;;16.90;11.50;;;18.40;99.90;;;;;;5056663;28;20091;-80
2022/06/26 00:36:51;;;;;;;13.88;11.23;;;18.40;99.90;;;;;;5054457;28;20468;-81
2022/06/26 00:39:17;;;;;;;16.58;12.52;;;18.40;99.90;;;;;;5083668;28;20437;-81
2022/06/26 00:41:43;;;;;;;14.23;12.40;;;18.30;99.90;;;;;;5046281;28;20064;-81
2022/06/26 00:44:16;;;;;;;16.92;12.15;;;18.40;99.90;;;;;;5080846;28;21706;-81
2022/06/26 00:46:43;;;;;;;18.50;13.55;;;18.40;99.90;;;;;;5032600;28;20447;-81
2022/06/26 00:49:09;;;;;;;14.48;12.85;;;18.30;99.90;;;;;;5049039;28;20033;-81
2022/06/26 00:51:40;;;;;;;21.85;13.80;;;18.30;99.90;;;;;;5049586;28;20488;-81
2022/06/26 00:54:07;;;;;;;17.08;13.48;;;18.30;99.90;;;;;;5030876;28;20090;-81
2022/06/26 00:56:37;;;;;;;19.50;13.98;;;18.30;99.90;;;;;;5065625;28;20334;-81
2022/06/26 00:59:04;;;;;;;20.58;14.75;;;18.20;99.90;;;;;;5080672;28;20036;-81
2022/06/26 01:01:31;;;;;;;18.15;13.95;;;18.20;99.90;;;;;;5064748;28;20052;-80
2022/06/26 01:03:57;;;;;;;17.55;14.02;;;18.30;99.90;;;;;;5069609;28;20139;-81
2022/06/26 01:06:23;;;;;;;18.50;15.43;;;18.30;99.90;;;;;;5029954;28;20048;-80
2022/06/26 01:08:49;;;;;;;22.10;15.93;;;18.20;99.90;;;;;;5052115;28;20048;-80
2022/06/26 01:11:17;;;;;;;23.80;17.25;;;18.30;99.90;;;;;;5032423;28;20506;-80
2022/06/26 01:13:55;;;;;;;26.10;19.67;;;18.40;99.90;;;;;;5078286;28;20049;-80
2022/06/26 01:16:22;;;;;;;26.48;19.27;;;18.20;99.90;;;;;;5044291;28;20037;-80
2022/06/26 01:18:54;;;;;;;26.92;19.25;;;18.20;99.90;;;;;;5060464;28;20065;-80
2022/06/26 01:21:21;;;;;;;25.42;18.08;;;18.10;99.90;;;;;;5031539;28;20047;-80
2022/06/26 01:23:48;;;;;;;22.83;17.48;;;18.30;99.90;;;;;;5034684;28;20128;-80
2022/06/26 01:26:18;;;;;;;22.30;16.60;;;18.30;99.90;;;;;;5056261;28;20045;-80
2022/06/26 01:28:44;;;;;;;24.35;16.58;;;18.20;99.90;;;;;;5097023;28;20033;-79
2022/06/26 01:31:10;;;;;;;26.10;16.58;;;18.30;99.90;;;;;;5050687;28;20119;-80
2022/06/26 01:33:36;;;;;;;25.75;16.30;;;18.30;99.90;;;;;;5081467;28;20056;-80
2022/06/26 01:36:03;;;;;;;20.00;16.33;;;18.40;99.90;;;;;;5048790;28;20045;-80
2022/06/26 01:38:28;;;;;;;25.65;16.25;;;18.40;99.90;;;;;;5046464;28;20040;-80
2022/06/26 01:40:56;;;;;;;22.23;15.73;;;18.30;99.90;;;;;;5043664;28;20033;-80
2022/06/26 01:43:29;;;;;;;22.50;14.80;;;18.30;99.90;;;;;;5040593;28;20037;-81
2022/06/26 01:45:56;;;;;;;24.13;15.27;;;18.30;99.90;;;;;;5079585;28;20127;-80
2022/06/26 01:48:27;;;;;;;20.25;14.27;;;18.30;99.90;;;;;;5046772;28;20693;-80
2022/06/26 01:50:54;;;;;;;19.35;13.57;;;18.30;99.90;;;;;;5046853;28;20043;-80
2022/06/26 01:53:20;;;;;;;16.60;12.10;;;18.20;99.90;;;;;;5053283;28;20033;-80
2022/06/26 01:55:46;;;;;;;17.60;12.43;;;18.30;99.90;;;;;;5055099;28;20128;-79
2022/06/26 01:58:15;;;;;;;19.92;12.35;;;18.20;99.90;;;;;;5055243;28;20480;-79
2022/06/26 02:00:43;;;;;;;21.20;12.13;;;18.20;99.90;;;;;;5079180;28;20036;-80
2022/06/26 02:03:10;;;;;;;21.77;11.50;;;18.20;99.90;;;;;;5075300;28;20080;-81
2022/06/26 02:05:36;;;;;;;20.80;12.15;;;18.20;99.90;;;;;;5075245;28;20079;-80
2022/06/26 02:08:03;;;;;;;17.08;11.85;;;18.10;99.90;;;;;;5028339;28;20118;-81
2022/06/26 02:16:01;;;;;;;18.38;11.25;;;18.10;99.90;;;;;;5039783;28;20053;-80
2022/06/26 02:18:27;;;;;;;21.83;11.82;;;18.10;99.90;;;;;;5046419;28;20480;-80
2022/06/26 02:20:53;;;;;;;17.67;11.27;;;18.10;99.90;;;;;;5043421;28;20108;-80
2022/06/26 02:23:19;;;;;;;17.40;11.13;;;18.10;99.90;;;;;;5030438;28;20040;-81
2022/06/26 02:25:45;;;;;;;15.35;10.57;;;18.10;99.90;;;;;;5046367;28;20490;-80
2022/06/26 02:28:29;;;;;;;19.27;10.63;;;18.10;99.90;;;;;;5043632;28;20036;-81
2022/06/26 02:30:56;;;;;;;17.48;11.18;;;18.10;99.90;;;;;;5029891;28;21482;-81
2022/06/26 02:33:22;;;;;;;27.85;13.07;;;18.10;99.90;;;;;;5061222;28;20459;-81
2022/06/26 02:35:48;;;;;;;21.95;12.18;;;18.10;99.90;;;;;;5028552;28;20037;-81
2022/06/26 02:38:15;;;;;;;25.58;14.25;;;18.00;99.90;;;;;;5045773;28;20043;-80
2022/06/26 02:40:43;;;;;;;21.80;11.25;;;18.10;99.90;;;;;;5047828;28;20051;-80
2022/06/26 02:43:10;;;;;;;23.70;12.60;;;18.10;99.90;;;;;;5050232;28;20459;-80
2022/06/26 02:45:36;;;;;;;22.70;10.73;;;18.00;99.90;;;;;;5084189;28;20108;-81
2022/06/26 02:48:02;;;;;;;21.10;11.68;;;18.00;99.90;;;;;;5053043;28;20067;-82
2022/06/26 02:50:27;;;;;;;20.85;11.65;;;18.00;99.90;;;;;;5029697;28;20045;-81
2022/06/26 02:52:53;;;;;;;22.15;11.15;;;18.00;99.90;;;;;;5061250;28;20524;-81
2022/06/26 02:55:19;;;;;;;20.27;10.63;;;18.00;99.90;;;;;;5050852;28;20384;-81
2022/06/26 02:57:45;;;;;;;16.88;10.93;;;17.90;99.90;;;;;;5078589;28;20434;-80
2022/06/26 03:00:15;;;;;;;17.33;9.15;;;17.90;99.90;;;;;;5039083;28;20511;-80
2022/06/26 03:02:41;;;;;;;14.50;9.45;;;17.80;99.90;;;;;;5032555;28;20044;-80
2022/06/26 03:05:07;;;;;;;17.85;8.65;;;17.80;99.90;;;;;;5048456;28;20068;-81
2022/06/26 03:07:33;;;;;;;12.35;7.43;;;17.80;99.90;;;;;;5031703;28;20098;-81
2022/06/26 03:09:58;;;;;;;11.55;6.80;;;17.70;99.90;;;;;;5029417;28;20372;-80
2022/06/26 03:12:24;;;;;;;10.38;6.63;;;17.60;99.90;;;;;;5049307;28;20476;-80
2022/06/26 03:14:50;;;;;;;9.88;6.30;;;17.60;99.90;;;;;;5085816;28;20430;-81
2022/06/26 03:17:15;;;;;;;12.45;6.60;;;17.70;99.90;;;;;;5050056;28;20094;-80
2022/06/26 03:19:42;;;;;;;11.43;7.20;;;17.60;99.90;;;;;;5056361;28;20040;-79
2022/06/26 03:22:08;;;;;;;11.40;7.13;;;17.60;99.90;;;;;;5080902;28;20487;-79
2022/06/26 03:24:34;;;;;;;10.70;6.88;;;17.60;99.90;;;;;;5061859;28;20080;-79
2022/06/26 03:27:00;;;;;;;12.93;6.75;;;17.50;99.90;;;;;;5082370;28;20119;-80
2022/06/26 03:29:26;;;;;;;10.20;6.60;;;17.50;99.90;;;;;;5070306;28;20032;-80
2022/06/26 03:31:52;;;;;;;11.07;6.72;;;17.50;99.90;;;;;;5082505;28;20036;-80
2022/06/26 03:34:19;;;;;;;10.55;6.40;;;17.50;99.90;;;;;;5045751;28;20063;-81
2022/06/26 03:36:45;;;;;;;10.32;5.43;;;17.50;99.90;;;;;;5028519;28;20036;-81
2022/06/26 03:39:11;;;;;;;9.40;5.80;;;17.50;99.90;;;;;;5048435;28;20047;-81
2022/06/26 03:41:37;;;;;;;8.65;5.07;;;17.50;99.90;;;;;;5064675;28;20049;-81
2022/06/26 03:44:02;;;;;;;11.95;4.82;;;17.50;99.90;;;;;;5049241;28;20402;-81
2022/06/26 03:46:28;;;;;;;14.88;5.07;;;17.50;99.90;;;;;;5054827;28;20071;-81
2022/06/26 03:48:54;;;;;;;8.02;5.10;;;17.50;99.90;;;;;;5035081;28;20048;-81
2022/06/26 03:51:20;;;;;;;8.82;4.68;;;17.50;99.90;;;;;;5066372;28;20061;-81
2022/06/26 03:53:46;;;;;;;8.55;5.03;;;17.50;99.90;;;;;;5080206;28;20040;-81
2022/06/26 03:56:11;;;;;;;10.20;4.88;;;17.50;99.90;;;;;;5073585;28;20104;-81
2022/06/26 03:59:16;;;;;;;9.10;4.80;;;17.50;99.90;;;;;;5056070;28;20574;-80
2022/06/26 04:01:45;;;;;;;7.60;4.78;;;17.40;99.90;;;;;;5051064;28;20050;-81
2022/06/26 04:04:10;;;;;;;7.03;4.60;;;17.40;99.90;;;;;;5051930;28;20036;-80
2022/06/26 04:06:36;;;;;;;7.70;4.00;;;17.40;99.90;;;;;;5071946;28;20089;-81
2022/06/26 04:09:03;;;;;;;5.80;4.00;;;17.40;99.90;;;;;;5086671;28;20150;-81
2022/06/26 04:14:51;;;;;;;8.55;3.88;;;17.40;99.90;;;;;;5083387;28;20052;-80
2022/06/26 04:17:17;;;;;;;6.43;3.90;;;17.40;99.90;;;;;;5102400;28;20044;-81
2022/06/26 04:19:42;;;;;;;8.07;4.30;;;17.40;99.90;;;;;;5057108;28;20038;-80
2022/06/26 04:22:08;;;;;;;7.45;4.10;;;17.40;99.90;;;;;;5039481;28;20223;-80
2022/06/26 04:24:34;;;;;;;7.45;3.97;;;17.40;99.90;;;;;;5071764;28;20055;-80
2022/06/26 04:27:00;;;;;;;5.35;3.70;;;17.40;99.90;;;;;;5054705;28;20045;-81
2022/06/26 04:29:26;;;;;;;8.07;4.00;;;17.50;99.90;;;;;;5052891;28;20110;-81
2022/06/26 04:31:51;;;;;;;7.88;3.90;;;17.50;99.90;;;;;;5090267;28;20072;-81
2022/06/26 04:34:17;;;;;;;6.47;3.40;;;17.50;99.90;;;;;;5065573;28;20480;-81
2022/06/26 04:36:43;;;;;;;6.00;3.30;;;17.50;99.90;;;;;;5036246;28;20113;-81
2022/06/26 04:39:09;;;;;;;10.90;3.85;;;17.60;99.90;;;;;;5040312;28;20036;-80
2022/06/26 04:45:34;;;;;;;5.18;3.40;;;17.60;99.90;;;;;;5075396;28;20036;-80
2022/06/26 04:48:00;;;;;;;7.18;3.58;;;17.70;99.90;;;;;;5054258;28;20032;-80
2022/06/26 04:50:26;;;;;;;3.70;3.28;;;17.70;99.90;;;;;;5053950;28;20106;-80
2022/06/26 04:52:51;;;;;;;7.18;3.97;;;17.60;99.90;;;;;;5065624;28;20040;-81
2022/06/26 04:55:17;;;;;;;6.30;3.97;;;17.50;99.90;;;;;;5077824;28;20037;-81
2022/06/26 04:57:43;;;;;;;5.03;3.67;;;17.60;99.90;;;;;;5086807;28;20059;-81
2022/06/26 05:00:14;;;;;;;5.45;3.80;;;17.70;99.90;;;;;;5085824;28;20139;-81
2022/06/26 05:02:40;;;;;;;7.32;3.95;;;17.70;99.90;;;;;;5071782;28;20039;-81
2022/06/26 05:05:07;;;;;;;9.52;3.90;;;17.80;99.90;;;;;;5083236;28;20037;-81
2022/06/26 05:07:33;;;;;;;8.98;4.10;;;17.90;99.90;;;;;;5037183;28;20485;-81
2022/06/26 05:09:59;;;;;;;4.35;3.75;;;18.00;99.90;;;;;;5073323;28;20036;-81
2022/06/26 05:12:25;;;;;;;5.32;3.78;;;18.20;99.90;;;;;;5067919;28;20044;-81
2022/06/26 05:14:51;;;;;;;6.13;3.67;;;18.20;99.90;;;;;;5068932;28;20786;-81
2022/06/26 05:17:17;;;;;;;8.80;4.10;;;18.20;99.90;;;;;;5033679;28;20459;-80
2022/06/26 05:19:43;;;;;;;9.35;3.90;;;18.20;99.90;;;;;;5052964;28;20037;-81
2022/06/26 05:22:09;;;;;;;5.93;4.38;;;18.40;99.90;;;;;;5070581;28;20072;-81
2022/06/26 05:24:35;;;;;;;5.60;4.00;;;18.40;99.90;;;;;;5070482;28;20040;-83
2022/06/26 05:27:00;;;;;;;5.60;3.92;;;18.50;99.90;;;;;;5071074;28;20090;-81
2022/06/26 05:29:26;;;;;;;7.97;3.80;;;18.50;99.90;;;;;;5034650;28;20457;-81
2022/06/26 05:31:52;;;;;;;8.73;4.07;;;18.60;99.90;;;;;;5046248;28;20044;-82
2022/06/26 05:34:18;;;;;;;5.97;3.80;;;18.60;99.90;;;;;;5036839;28;20472;-81
2022/06/26 05:36:44;;;;;;;3.85;3.45;;;18.50;99.90;;;;;;5041692;28;20041;-81
2022/06/26 05:39:10;;;;;;;6.63;4.00;;;18.50;99.90;;;;;;5063881;28;20021;-81
2022/06/26 05:41:36;;;;;;;6.60;3.65;;;18.40;99.90;;;;;;5069252;28;20047;-81
2022/06/26 05:44:22;;;;;;;6.60;4.18;;;18.50;99.90;;;;;;5086165;28;20040;-81
2022/06/26 05:46:48;;;;;;;6.03;4.95;;;18.40;99.90;;;;;;5085666;28;20048;-81
2022/06/26 05:49:14;;;;;;;9.13;5.18;;;18.30;99.90;;;;;;5054649;28;20364;-81
2022/06/26 05:51:39;;;;;;;8.30;5.32;;;18.40;99.90;;;;;;5079952;28;20043;-80
2022/06/26 05:54:05;;;;;;;8.60;5.55;;;18.40;99.90;;;;;;5076843;28;20044;-80
2022/06/26 05:56:31;;;;;;;8.52;5.82;;;18.40;99.90;;;;;;5053228;28;20052;-78
2022/06/26 05:58:56;;;;;;;6.93;6.22;;;18.30;99.90;;;;;;5082670;28;20040;-80
2022/06/26 06:01:22;;;;;;;8.02;5.05;;;18.30;99.90;;;;;;5050889;28;20166;-75
2022/06/26 06:03:47;;;;;;;7.18;5.22;;;18.40;99.90;;;;;;5043334;28;20044;-75
2022/06/26 06:06:13;;;;;;;7.57;6.10;;;18.50;99.90;;;;;;5080348;28;20053;-75
2022/06/26 06:08:39;;;;;;;10.20;5.97;;;18.60;99.90;;;;;;5034440;28;20518;-74
2022/06/26 06:11:04;;;;;;;6.28;5.68;;;18.80;99.90;;;;;;5050717;28;20053;-77
2022/06/26 06:13:30;;;;;;;7.97;6.28;;;18.80;99.90;;;;;;5033113;28;20510;-77
2022/06/26 06:15:56;;;;;;;10.82;6.53;;;18.70;99.90;;;;;;5033469;28;20089;-77
2022/06/26 06:18:21;;;;;;;10.65;6.05;;;18.80;99.90;;;;;;5048872;28;20040;-77
2022/06/26 06:20:47;;;;;;;12.18;7.13;;;19.00;99.90;;;;;;5047944;28;20067;-79
2022/06/26 06:23:13;;;;;;;9.90;6.60;;;19.00;99.90;;;;;;5062298;28;20036;-77
2022/06/26 06:25:38;;;;;;;9.90;6.28;;;19.00;99.90;;;;;;5060723;28;20769;-77
2022/06/26 06:28:04;;;;;;;11.75;8.40;;;19.10;99.90;;;;;;5051911;28;20504;-77
2022/06/26 06:30:30;;;;;;;10.13;8.57;;;19.10;99.90;;;;;;5047076;28;20756;-78
2022/06/26 06:32:59;;;;;;;10.93;9.07;;;19.00;99.90;;;;;;5076165;28;20468;-81
2022/06/26 06:35:25;;;;;;;13.85;10.10;;;19.00;99.90;;;;;;5066696;28;20058;-80
2022/06/26 06:37:51;;;;;;;14.93;10.68;;;19.00;99.90;;;;;;5034314;28;20067;-80
2022/06/26 06:40:17;;;;;;;14.25;10.30;;;18.90;99.90;;;;;;5049385;28;20501;-80
2022/06/26 06:42:43;;;;;;;15.05;11.65;;;19.00;99.90;;;;;;5053111;28;20154;-80
2022/06/26 06:45:10;;;;;;;14.50;11.20;;;19.00;99.90;;;;;;5024691;28;20040;-80
2022/06/26 06:47:36;;;;;;;12.60;11.23;;;19.10;99.90;;;;;;5050734;28;21011;-80
2022/06/26 06:50:02;;;;;;;14.73;11.35;;;19.20;99.90;;;;;;5081357;28;20054;-80
2022/06/26 06:52:28;;;;;;;16.77;10.95;;;19.30;99.90;;;;;;5064879;28;20111;-80
2022/06/26 06:54:54;;;;;;;11.88;10.57;;;19.30;99.90;;;;;;5065191;28;20141;-80
2022/06/26 06:57:41;;;;;;;12.80;11.35;;;19.30;99.90;;;;;;5070780;28;20064;-80
2022/06/26 07:00:08;;;;;;;14.30;12.70;;;19.20;99.90;;;;;;5060609;28;20123;-80
2022/06/26 07:02:39;;;;;;;17.13;11.85;;;19.20;99.90;;;;;;5085009;28;20048;-80
2022/06/26 07:05:08;;;;;;;16.67;13.10;;;19.30;99.90;;;;;;5077835;28;20048;-80
2022/06/26 07:07:35;;;;;;;16.38;13.32;;;19.30;99.90;;;;;;5053193;28;20032;-80
2022/06/26 07:10:00;;;;;;;16.42;12.30;;;19.50;99.90;;;;;;5046726;28;20104;-80
2022/06/26 07:12:26;;;;;;;14.68;13.13;;;19.70;99.90;;;;;;5067729;28;20406;-80
2022/06/26 07:14:53;;;;;;;15.98;13.13;;;19.80;99.90;;;;;;5027340;28;20064;-80
2022/06/26 07:17:19;;;;;;;15.18;13.13;;;20.10;99.90;;;;;;5080911;28;20037;-80
2022/06/26 07:19:44;;;;;;;18.13;13.48;;;20.20;99.90;;;;;;5064953;28;21478;-79
2022/06/26 07:22:10;;;;;;;14.18;12.77;;;20.10;99.90;;;;;;5028394;28;20123;-81
2022/06/26 07:24:36;;;;;;;12.90;11.30;;;20.20;99.90;;;;;;5046404;28;20468;-79
2022/06/26 07:27:03;;;;;;;18.50;15.23;;;20.20;99.90;;;;;;5048370;28;20036;-78
2022/06/26 07:32:54;;;;;;;23.23;16.20;;;20.20;99.90;;;;;;5061401;28;20083;-78
2022/06/26 07:35:19;;;;;;;20.63;14.18;;;20.40;99.90;;;;;;5046233;28;20764;-78
2022/06/26 07:37:46;;;;;;;23.17;15.77;;;20.60;99.90;;;;;;5064767;28;20399;-78
2022/06/26 07:40:15;;;;;;;21.88;16.27;;;20.70;99.90;;;;;;5026353;28;20113;-76
2022/06/26 07:42:40;;;;;;;21.08;15.15;;;20.60;99.90;;;;;;5028115;28;20409;-77
2022/06/26 07:45:06;;;;;;;18.95;15.10;;;20.50;99.90;;;;;;5077681;28;20048;-75
2022/06/26 07:47:32;;;;;;;18.13;15.35;;;20.50;99.90;;;;;;5063605;28;20072;-78
2022/06/26 07:49:58;;;;;;;16.20;14.02;;;20.60;99.90;;;;;;5073797;28;20045;-79
2022/06/26 07:52:23;;;;;;;28.55;17.98;;;20.60;99.90;;;;;;5058416;28;20513;-77
2022/06/26 07:54:49;;;;;;;18.77;16.65;;;20.70;99.90;;;;;;5026753;28;20044;-77
2022/06/26 07:57:15;;;;;;;17.92;15.23;;;20.80;99.90;;;;;;5027513;28;20712;-80
2022/06/26 07:59:41;;;;;;;18.75;15.35;;;20.90;99.90;;;;;;5076114;28;20044;-76
2022/06/26 08:02:07;;;;;;;19.35;14.68;;;21.00;99.90;;;;;;5026052;28;20045;-76
2022/06/26 08:04:32;;;;;;;21.20;13.70;;;20.90;99.90;;;;;;5027242;28;20059;-78
2022/06/26 08:06:58;;;;;;;15.68;12.50;;;21.00;99.90;;;;;;5043217;28;20044;-78
2022/06/26 08:09:24;;;;;;;14.50;10.55;;;21.10;99.90;;;;;;5078290;28;20056;-77
2022/06/26 08:11:49;;;;;;;12.90;10.57;;;21.20;99.90;;;;;;5047376;28;20348;-77
2022/06/26 08:14:17;;;;;;;12.40;9.75;;;21.40;99.90;;;;;;5058977;28;20253;-80
2022/06/26 08:16:43;;;;;;;12.00;9.13;;;21.30;99.90;;;;;;5063844;28;20399;-79
2022/06/26 08:19:09;;;;;;;13.18;9.65;;;21.40;99.90;;;;;;5078363;28;20032;-82
2022/06/26 08:24:18;;;;;;;13.55;9.02;;;21.70;99.90;;;;;;5064500;28;20048;-79
2022/06/26 08:26:44;;;;;;;11.32;8.90;;;21.80;99.90;;;;;;5077519;28;20037;-77
2022/06/26 08:29:10;;;;;;;12.98;9.57;;;21.70;99.90;;;;;;5089210;28;20072;-79
2022/06/26 08:31:36;;;;;;;15.23;10.85;;;21.70;99.90;;;;;;5047880;28;20110;-79
2022/06/26 08:34:03;;;;;;;14.25;10.50;;;21.70;99.90;;;;;;5083250;28;20124;-82
2022/06/26 08:36:29;;;;;;;11.23;7.43;;;21.70;99.90;;;;;;5080904;28;20377;-82
2022/06/26 08:38:55;;;;;;;11.35;8.38;;;21.70;99.90;;;;;;5045285;28;20060;-83
2022/06/26 08:41:26;;;;;;;13.40;10.05;;;21.90;99.90;;;;;;5049959;28;20044;-83
2022/06/26 08:43:52;;;;;;;11.55;7.78;;;21.90;99.90;;;;;;5081488;28;20043;-83
2022/06/26 08:46:21;;;;;;;12.05;6.60;;;22.20;99.90;;;;;;5063403;28;20110;-85
2022/06/26 08:48:48;;;;;;;8.32;5.90;;;22.30;99.90;;;;;;5067084;28;20132;-83
2022/06/26 08:51:14;;;;;;;7.20;5.20;;;22.30;99.90;;;;;;5072631;28;20044;-82
2022/06/26 08:53:41;;;;;;;9.75;5.30;;;22.60;99.90;;;;;;5073264;28;20037;-83
2022/06/26 08:56:07;;;;;;;10.95;6.07;;;22.60;99.90;;;;;;5047128;28;20451;-84
2022/06/26 08:58:33;;;;;;;15.85;7.13;;;22.60;99.90;;;;;;5030049;28;20047;-84
2022/06/26 09:00:59;;;;;;;6.93;6.13;;;22.90;99.90;;;;;;5035574;28;20041;-85
2022/06/26 09:03:25;;;;;;;9.40;7.00;;;23.10;99.90;;;;;;5077048;28;20460;-88
2022/06/26 09:05:53;;;;;;;10.32;6.80;;;23.30;99.90;;;;;;5036813;28;20055;-86
2022/06/26 09:08:20;;;;;;;9.70;5.95;;;23.40;99.90;;;;;;5047697;28;20399;-85
2022/06/26 09:10:48;;;;;;;8.13;5.90;;;23.10;99.90;;;;;;5064776;28;20506;-81
2022/06/26 09:13:16;;;;;;;6.82;4.00;;;22.80;99.90;;;;;;5079832;28;20148;-84
2022/06/26 09:15:43;;;;;;;6.45;3.55;;;22.80;99.90;;;;;;5042414;28;20128;-83
2022/06/26 09:18:11;;;;;;;9.70;4.00;;;22.50;99.90;;;;;;5081121;28;20186;-77
2022/06/26 09:20:56;;;;;;;6.57;4.30;;;22.40;99.90;;;;;;5029794;28;20048;-81
2022/06/26 09:23:22;;;;;;;6.68;3.90;;;22.40;99.90;;;;;;5045375;28;20041;-80
2022/06/26 09:25:48;;;;;;;7.45;4.78;;;22.60;99.90;;;;;;5055110;28;20041;-81
2022/06/26 09:28:15;;;;;;;6.22;3.63;;;22.80;99.90;;;;;;5071298;28;20052;-82
2022/06/26 09:30:50;;;;;;;5.15;3.30;;;23.10;99.90;;;;;;5039130;28;20472;-82
2022/06/26 09:33:18;;;;;;;3.60;2.80;;;22.90;99.90;;;;;;5029912;28;20055;-80
2022/06/26 09:35:44;;;;;;;4.90;2.78;;;22.60;99.90;;;;;;5045716;28;20087;-80
2022/06/26 09:38:14;;;;;;;7.35;2.90;;;22.40;99.90;;;;;;5043642;28;20132;-81
2022/06/26 09:40:52;;;;;;;3.38;2.38;;;22.30;99.90;;;;;;5028683;28;20040;-81
2022/06/26 09:43:32;;;;;;;6.20;2.97;;;22.30;99.90;;;;;;5047655;28;20068;-82
2022/06/26 09:46:02;;;;;;;5.28;2.70;;;22.50;99.90;;;;;;5050333;28;20084;-80
2022/06/26 09:48:29;;;;;;;6.85;3.38;;;22.60;99.90;;;;;;5081606;28;20045;-80
2022/06/26 09:50:55;;;;;;;5.55;3.25;;;22.80;99.90;;;;;;5085352;28;20037;-81
2022/06/26 09:53:23;;;;;;;5.32;3.40;;;22.90;99.90;;;;;;5031887;28;20029;-80
2022/06/26 09:55:50;;;;;;;4.00;2.83;;;22.90;99.90;;;;;;5044913;28;20064;-81
2022/06/26 09:58:17;;;;;;;6.38;3.45;;;22.80;99.90;;;;;;5084170;28;20066;-80
2022/06/26 10:06:25;;;;;;;3.40;2.40;;;22.80;99.90;;;;;;5084643;28;20041;-80
2022/06/26 10:06:25;;;;;;;4.00;2.40;;;23.10;99.90;;;;;;5048711;28;20128;-81
2022/06/26 10:08:53;;;;;;;5.13;2.70;;;22.90;99.90;;;;;;5047261;28;20029;-80
2022/06/26 10:11:21;;;;;;;6.05;2.70;;;23.10;99.90;;;;;;5050741;28;20295;-82
2022/06/26 10:18:20;;;;;;;5.43;2.78;;;23.60;99.90;;;;;;5023224;28;20049;-82
2022/06/26 10:20:47;;;;;;;2.85;2.03;;;23.60;99.90;;;;;;5005783;28;20046;-82
2022/06/26 10:23:30;;;;;;;4.97;1.98;;;23.30;99.90;;;;;;5022664;28;20041;-83
2022/06/26 10:25:56;;;;;;;5.28;2.40;;;23.20;99.90;;;;;;5039806;28;20485;-84
2022/06/26 10:28:22;;;;;;;6.18;2.15;;;23.50;99.90;;;;;;5023328;28;20134;-83
2022/06/26 10:30:48;;;;;;;4.00;2.08;;;23.80;99.90;;;;;;5002012;28;20481;-87
2022/06/26 10:33:16;;;;;;;2.80;1.90;;;24.00;99.90;;;;;;5003136;28;20041;-85
2022/06/26 10:35:49;;;;;;;3.85;1.85;;;24.10;99.90;;;;;;5003675;28;20096;-81
2022/06/26 10:38:21;;;;;;;4.15;2.08;;;24.10;99.90;;;;;;5030308;28;20041;-82
2022/06/26 10:44:13;;;;;;;3.85;2.10;;;24.10;99.90;;;;;;5020299;28;20056;-81
2022/06/26 10:46:46;;;;;;;4.45;2.50;;;24.10;99.90;;;;;;4999370;28;20111;-86
2022/06/26 10:49:15;;;;;;;4.47;2.30;;;24.10;99.90;;;;;;5021316;28;20361;-81
2022/06/26 10:51:45;;;;;;;5.38;2.20;;;24.00;99.90;;;;;;5014454;28;20153;-83
2022/06/26 10:54:27;;;;;;;5.10;2.33;;;23.90;99.90;;;;;;5022087;28;20477;-85
2022/06/26 10:57:17;;;;;;;5.15;2.30;;;23.90;99.90;;;;;;5009684;28;20104;-85
2022/06/26 10:59:44;;;;;;;7.35;2.47;;;24.00;99.90;;;;;;5013569;28;20037;-85
2022/06/26 11:02:11;;;;;;;6.30;2.22;;;24.10;99.90;;;;;;5014515;28;20049;-85
2022/06/26 11:04:47;;;;;;;4.00;1.80;;;24.10;99.90;;;;;;5019198;28;20113;-84
2022/06/26 11:07:15;;;;;;;4.30;1.90;;;24.20;99.90;;;;;;5028738;28;20033;-84
2022/06/26 11:09:42;;;;;;;5.20;2.15;;;24.20;99.90;;;;;;5037228;28;20081;-85
2022/06/26 11:12:11;;;;;;;7.10;1.90;;;24.20;99.90;;;;;;5038967;28;20109;-85
2022/06/26 11:14:37;;;;;;;6.70;1.83;;;24.10;99.90;;;;;;5018772;28;20051;-85
2022/06/26 11:17:06;;;;;;;7.93;2.28;;;24.10;99.90;;;;;;5032845;28;20190;-86
2022/06/26 11:20:46;;;;;;;4.70;2.22;;;24.40;99.90;;;;;;5052359;28;20422;-87
2022/06/26 11:22:22;;;;;;;8.38;1.98;;;24.80;99.90;;;;;;5049754;28;20079;-85
2022/06/26 11:24:51;;;;;;;5.57;1.85;;;25.00;99.90;;;;;;5051186;28;20542;-85
2022/06/26 11:27:21;;;;;;;4.97;2.10;;;24.80;99.90;;;;;;5033109;28;20069;-85
2022/06/26 11:29:47;;;;;;;3.92;1.60;;;25.20;99.90;;;;;;5033448;28;20369;-83
2022/06/26 11:32:14;;;;;;;4.32;1.80;;;25.40;99.90;;;;;;5029426;28;20188;-85
2022/06/26 11:34:54;;;;;;;5.00;2.00;;;25.40;99.90;;;;;;5047870;28;20041;-86
2022/06/26 11:37:36;;;;;;;5.72;1.85;;;25.40;99.90;;;;;;5044151;28;20548;-84
2022/06/26 11:40:16;;;;;;;5.68;2.20;;;25.20;99.90;;;;;;5068457;28;20552;-85
2022/06/26 11:42:45;;;;;;;5.60;1.92;;;25.20;99.90;;;;;;5042227;28;20075;-86
2022/06/26 11:45:24;;;;;;;4.07;1.85;;;25.20;99.90;;;;;;5047242;28;20127;-86
2022/06/26 11:47:50;;;;;;;4.72;1.90;;;25.30;99.90;;;;;;5063682;28;20063;-86
2022/06/26 11:50:27;;;;;;;4.82;1.90;;;25.60;99.90;;;;;;5049935;28;20037;-85
2022/06/26 11:52:57;;;;;;;4.55;1.60;;;25.90;99.90;;;;;;5050367;28;20033;-86
2022/06/26 11:55:24;;;;;;;5.20;1.75;;;25.80;99.90;;;;;;5049328;28;20506;-86
2022/06/26 11:57:52;;;;;;;5.25;1.50;;;25.70;99.90;;;;;;5045985;28;20049;-86
2022/06/26 12:00:19;;;;;;;4.13;1.50;;;25.60;99.90;;;;;;5033069;28;20033;-86
2022/06/26 12:02:48;;;;;;;3.28;1.70;;;25.50;99.90;;;;;;5033468;28;20046;-86
2022/06/26 12:05:23;;;;;;;7.90;1.98;;;25.60;99.90;;;;;;5032287;28;20041;-86
2022/06/26 12:07:50;;;;;;;5.75;1.80;;;25.30;99.90;;;;;;5050771;28;20498;-87
2022/06/26 12:10:30;;;;;;;6.75;2.35;;;25.50;99.90;;;;;;5034102;28;20045;-86
2022/06/26 12:13:00;;;;;;;3.65;1.80;;;25.40;99.90;;;;;;5032694;28;20114;-85
2022/06/26 12:15:29;;;;;;;4.82;1.70;;;25.20;99.90;;;;;;5032414;28;20649;-87
2022/06/26 12:18:00;;;;;;;4.03;1.67;;;25.30;99.90;;;;;;5048257;28;20044;-85
2022/06/26 12:20:25;;;;;;;6.50;2.20;;;25.50;99.90;;;;;;5082859;28;20048;-84
2022/06/26 12:22:54;;;;;;;3.00;1.77;;;25.40;99.90;;;;;;5069125;28;20045;-85
2022/06/26 12:25:32;;;;;;;4.43;2.00;;;25.30;99.90;;;;;;5039316;28;20037;-82
2022/06/26 12:27:59;;;;;;;5.00;1.98;;;25.50;99.90;;;;;;5046205;28;20136;-84
2022/06/26 12:34:26;;;;;;;5.32;2.05;;;25.50;99.90;;;;;;5082554;28;20071;-80
2022/06/26 12:36:55;;;;;;;8.45;1.77;;;25.60;99.90;;;;;;5055198;28;20080;-82
2022/06/26 12:39:20;;;;;;;4.63;1.77;;;25.40;99.90;;;;;;5051979;28;20036;-79
2022/06/26 12:41:46;;;;;;;5.68;1.80;;;25.70;99.90;;;;;;5073801;28;20040;-81
2022/06/26 12:44:14;;;;;;;3.15;1.77;;;25.50;99.90;;;;;;5040642;28;20129;-83
2022/06/26 12:46:40;;;;;;;5.88;1.67;;;25.30;99.90;;;;;;5054954;28;20148;-83
2022/06/26 12:49:06;;;;;;;5.45;1.85;;;25.20;99.90;;;;;;5050155;28;20521;-79
2022/06/26 12:51:32;;;;;;;7.22;1.90;;;25.20;99.90;;;;;;5080069;28;20154;-80
2022/06/26 12:53:58;;;;;;;4.57;1.90;;;25.00;99.90;;;;;;5033497;28;20126;-81
2022/06/26 12:56:24;;;;;;;4.45;2.08;;;25.10;99.90;;;;;;5085179;28;20504;-83
2022/06/26 12:58:50;;;;;;;4.55;1.83;;;25.30;99.90;;;;;;5056586;28;20055;-82
2022/06/26 13:01:16;;;;;;;4.65;1.75;;;25.60;99.90;;;;;;5039994;28;20428;-81
2022/06/26 13:03:41;;;;;;;4.80;1.80;;;25.70;99.90;;;;;;5066756;28;20377;-82
2022/06/26 13:06:07;;;;;;;3.00;1.40;;;25.70;99.90;;;;;;5051684;28;20442;-85
2022/06/26 13:08:34;;;;;;;5.03;1.63;;;25.70;99.90;;;;;;5030926;28;20083;-80
2022/06/26 13:13:45;;;;;;;2.60;1.70;;;25.50;99.90;;;;;;5062571;28;20063;-83
2022/06/26 13:16:11;;;;;;;3.25;1.60;;;25.40;99.90;;;;;;5075410;28;20052;-81